createdAt,value
2018-07-28T00:01:51.793Z,78.21
2018-07-28T00:04:20.568Z,78.85
2018-07-28T00:06:49.377Z,79.11
2018-07-28T00:09:18.128Z,78.61
2018-07-28T00:11:46.878Z,79.31
2018-07-28T00:14:15.671Z,78.74
2018-07-28T00:16:44.442Z,79.50
2018-07-28T00:19:13.205Z,79.01
2018-07-28T00:21:41.937Z,78.78
2018-07-28T00:24:10.701Z,79.21
2018-07-28T00:26:39.438Z,79.41
2018-07-28T00:29:08.216Z,80.11
2018-07-28T00:31:37.020Z,79.46
2018-07-28T00:34:05.822Z,79.71
2018-07-28T00:36:34.614Z,80.30
2018-07-28T00:39:03.579Z,79.96
2018-07-28T00:41:32.305Z,79.38
2018-07-28T00:44:01.014Z,79.97
2018-07-28T00:46:29.773Z,80.21
2018-07-28T00:48:58.899Z,80.24
2018-07-28T00:51:27.685Z,79.95
2018-07-28T00:53:56.379Z,79.25
2018-07-28T00:56:25.158Z,79.02
2018-07-28T00:58:53.954Z,79.65
2018-07-28T01:01:23.078Z,79.53
2018-07-28T01:03:51.822Z,79.91
2018-07-28T01:06:20.578Z,79.22
2018-07-28T01:08:49.504Z,79.19
2018-07-28T01:11:18.262Z,79.72
2018-07-28T01:13:47.112Z,79.94
2018-07-28T01:16:15.886Z,78.92
2018-07-28T01:18:44.888Z,79.28
2018-07-28T01:21:13.675Z,79.19
2018-07-28T01:23:42.397Z,79.59
2018-07-28T01:26:11.165Z,78.75
2018-07-28T01:28:39.951Z,79.57
2018-07-28T01:31:08.718Z,78.22
2018-07-28T01:33:37.509Z,79.17
2018-07-28T01:36:06.705Z,78.92
2018-07-28T01:38:35.499Z,79.28
2018-07-28T01:41:04.267Z,79.16
2018-07-28T01:43:33.007Z,78.72
2018-07-28T01:46:01.777Z,79.13
2018-07-28T01:48:30.557Z,78.34
2018-07-28T01:50:59.278Z,78.91
2018-07-28T01:53:28.068Z,78.98
2018-07-28T01:55:56.820Z,79.15
2018-07-28T01:58:25.656Z,79.37
2018-07-28T02:00:54.500Z,78.58
2018-07-28T02:03:23.243Z,79.22
2018-07-28T02:05:51.971Z,79.39
2018-07-28T02:08:20.722Z,79.25
2018-07-28T02:10:49.659Z,79.21
2018-07-28T02:13:18.338Z,78.61
2018-07-28T02:15:47.051Z,78.36
2018-07-28T02:18:16.078Z,78.53
2018-07-28T02:20:44.910Z,78.97
2018-07-28T02:23:14.021Z,79.16
2018-07-28T02:25:42.994Z,79.54
2018-07-28T02:28:11.733Z,79.46
2018-07-28T02:30:40.510Z,79.11
2018-07-28T02:33:09.343Z,78.46
2018-07-28T02:35:38.100Z,79.52
2018-07-28T02:38:06.919Z,78.71
2018-07-28T02:40:35.670Z,79.58
2018-07-28T02:43:04.513Z,79.06
2018-07-28T02:45:33.290Z,79.67
2018-07-28T02:48:02.066Z,79.30
2018-07-28T02:50:30.815Z,80.15
2018-07-28T02:52:59.572Z,80.18
2018-07-28T02:55:28.363Z,79.23
2018-07-28T02:57:57.103Z,79.16
2018-07-28T03:00:25.952Z,79.63
2018-07-28T03:02:54.677Z,78.75
2018-07-28T03:05:23.447Z,78.85
2018-07-28T03:07:52.194Z,79.19
2018-07-28T03:10:20.959Z,79.72
2018-07-28T03:12:49.782Z,79.30
2018-07-28T03:15:35.680Z,79.21
2018-07-28T03:18:06.198Z,79.19
2018-07-28T03:20:35.033Z,79.66
2018-07-28T03:23:04.398Z,79.25
2018-07-28T03:25:33.174Z,80.07
2018-07-28T03:28:01.942Z,79.66
2018-07-28T03:30:30.825Z,80.41
2018-07-28T03:32:59.601Z,80.39
2018-07-28T03:35:28.283Z,80.22
2018-07-28T03:37:57.017Z,79.23
2018-07-28T03:40:25.849Z,79.35
2018-07-28T03:42:54.738Z,80.39
2018-07-28T03:45:23.573Z,79.59
2018-07-28T03:47:52.350Z,80.08
2018-07-28T03:50:21.094Z,79.05
2018-07-28T03:52:49.870Z,79.66
2018-07-28T03:55:18.670Z,79.09
2018-07-28T03:57:47.430Z,78.76
2018-07-28T04:00:16.260Z,78.97
2018-07-28T04:02:45.459Z,78.70
2018-07-28T04:05:14.252Z,79.06
2018-07-28T04:07:43.075Z,78.99
2018-07-28T04:10:11.841Z,78.64
2018-07-28T04:12:40.699Z,79.05
2018-07-28T04:15:12.090Z,79.37
2018-07-28T04:17:46.341Z,78.71
2018-07-28T04:20:15.522Z,79.02
2018-07-28T04:22:44.266Z,78.95
2018-07-28T04:25:13.494Z,78.84
2018-07-28T04:27:43.426Z,77.51
2018-07-28T04:30:14.194Z,77.75
2018-07-28T04:32:45.338Z,76.73
2018-07-28T04:35:14.458Z,76.85
2018-07-28T04:37:43.336Z,76.14
2018-07-28T04:40:36.426Z,76.59
2018-07-28T04:43:05.237Z,75.37
2018-07-28T04:45:34.185Z,76.01
2018-07-28T04:48:03.062Z,75.19
2018-07-28T04:50:31.849Z,74.85
2018-07-28T04:53:03.711Z,75.43
2018-07-28T04:55:32.512Z,75.14
2018-07-28T04:58:01.407Z,74.32
2018-07-28T05:00:30.237Z,72.71
2018-07-28T05:02:58.973Z,69.24
2018-07-28T05:05:27.696Z,66.85
2018-07-28T05:07:56.445Z,62.90
2018-07-28T05:10:25.576Z,62.67
2018-07-28T05:12:54.951Z,59.28
2018-07-28T05:15:23.762Z,59.22
2018-07-28T05:17:52.518Z,58.78
2018-07-28T05:20:21.291Z,56.35
2018-07-28T05:22:50.025Z,56.56
2018-07-28T05:25:18.807Z,56.79
2018-07-28T05:27:47.601Z,58.13
2018-07-28T05:30:16.494Z,59.83
2018-07-28T05:32:45.289Z,58.73
2018-07-28T05:35:14.016Z,58.56
2018-07-28T05:37:42.818Z,57.38
2018-07-28T05:40:11.662Z,57.22
2018-07-28T05:42:40.497Z,57.06
2018-07-28T05:45:09.270Z,56.90
2018-07-28T05:47:38.085Z,59.03
2018-07-28T05:50:08.168Z,60.01
2018-07-28T05:52:38.483Z,61.54
2018-07-28T05:55:07.375Z,62.27
2018-07-28T05:57:36.690Z,62.77
2018-07-28T06:00:06.698Z,61.94
2018-07-28T06:02:35.659Z,62.53
2018-07-28T06:05:05.235Z,63.16
2018-07-28T06:07:33.985Z,64.35
2018-07-28T06:10:02.846Z,63.89
2018-07-28T06:12:31.643Z,64.05
2018-07-28T06:15:00.418Z,64.19
2018-07-28T06:17:29.205Z,63.69
2018-07-28T06:19:58.455Z,63.46
2018-07-28T06:22:27.274Z,63.25
2018-07-28T06:24:56.118Z,64.22
2018-07-28T06:27:24.937Z,64.30
2018-07-28T06:29:53.753Z,64.94
2018-07-28T06:32:22.556Z,64.54
2018-07-28T06:34:51.740Z,65.01
2018-07-28T06:37:20.569Z,65.86
2018-07-28T06:39:49.294Z,65.81
2018-07-28T06:42:18.046Z,67.11
2018-07-28T06:44:47.110Z,65.94
2018-07-28T06:47:15.926Z,66.81
2018-07-28T06:49:44.838Z,66.09
2018-07-28T06:52:13.588Z,66.35
2018-07-28T06:54:42.372Z,66.79
2018-07-28T06:57:11.112Z,65.95
2018-07-28T06:59:40.287Z,66.61
2018-07-28T07:02:10.195Z,65.87
2018-07-28T07:04:39.049Z,65.18
2018-07-28T07:07:08.293Z,64.54
2018-07-28T07:09:37.053Z,64.56
2018-07-28T07:12:06.309Z,66.38
2018-07-28T07:14:35.130Z,65.92
2018-07-28T07:17:04.046Z,64.20
2018-07-28T07:19:32.858Z,64.26
2018-07-28T07:22:01.568Z,64.91
2018-07-28T07:24:30.335Z,63.84
2018-07-28T07:26:59.100Z,64.15
2018-07-28T07:29:27.886Z,64.40
2018-07-28T07:31:56.647Z,64.54
2018-07-28T07:34:25.450Z,63.33
2018-07-28T07:36:54.341Z,64.08
2018-07-28T07:39:23.122Z,64.78
2018-07-28T07:41:51.879Z,64.88
2018-07-28T07:44:20.654Z,64.60
2018-07-28T07:46:49.430Z,66.03
2018-07-28T07:49:19.105Z,64.65
2018-07-28T07:51:47.835Z,64.10
2018-07-28T07:54:16.630Z,64.19
2018-07-28T07:56:45.398Z,63.30
2018-07-28T07:59:14.318Z,63.46
2018-07-28T08:01:43.071Z,62.54
2018-07-28T08:04:11.838Z,63.52
2018-07-28T08:06:40.607Z,63.99
2018-07-28T08:09:09.746Z,63.38
2018-07-28T08:11:38.526Z,61.35
2018-07-28T08:14:07.737Z,60.58
2018-07-28T08:16:36.503Z,60.36
2018-07-28T08:19:05.287Z,62.09
2018-07-28T08:21:34.069Z,60.37
2018-07-28T08:24:02.950Z,60.68
2018-07-28T08:26:31.720Z,60.76
2018-07-28T08:29:00.963Z,60.94
2018-07-28T08:31:29.762Z,59.79
2018-07-28T08:33:58.533Z,60.58
2018-07-28T08:36:27.358Z,60.01
2018-07-28T08:38:56.126Z,60.10
2018-07-28T08:41:24.878Z,60.45
2018-07-28T08:43:53.617Z,58.27
2018-07-28T08:46:22.513Z,59.87
2018-07-28T08:48:51.476Z,60.53
2018-07-28T08:51:20.425Z,59.19
2018-07-28T08:53:49.166Z,58.52
2018-07-28T08:56:17.934Z,57.79
2018-07-28T08:58:46.770Z,59.09
2018-07-28T09:01:15.898Z,58.71
2018-07-28T09:03:44.673Z,57.90
2018-07-28T09:06:13.423Z,57.57
2018-07-28T09:08:42.185Z,57.18
2018-07-28T09:11:10.906Z,58.18
2018-07-28T09:13:39.693Z,57.99
2018-07-28T09:16:08.686Z,57.32
2018-07-28T09:18:37.565Z,57.17
2018-07-28T09:21:07.051Z,56.03
2018-07-28T09:23:36.280Z,56.08
2018-07-28T09:26:05.249Z,55.75
2018-07-28T09:28:34.031Z,54.70
2018-07-28T09:31:03.162Z,55.56
2018-07-28T09:33:32.331Z,55.44
2018-07-28T09:36:01.137Z,55.82
2018-07-28T09:38:29.917Z,54.76
2018-07-28T09:40:58.693Z,55.71
2018-07-28T09:43:27.481Z,53.40
2018-07-28T09:45:56.252Z,53.73
2018-07-28T09:48:25.015Z,54.30
2018-07-28T09:50:53.847Z,53.34
2018-07-28T09:53:22.639Z,52.06
2018-07-28T09:55:51.389Z,52.11
2018-07-28T09:58:20.142Z,52.80
2018-07-28T10:00:54.203Z,51.75
2018-07-28T10:03:22.968Z,52.45
2018-07-28T10:05:51.725Z,52.20
2018-07-28T10:08:20.509Z,53.18
2018-07-28T10:10:49.297Z,53.25
2018-07-28T10:13:18.066Z,51.00
2018-07-28T10:15:46.848Z,51.38
2018-07-28T10:18:15.565Z,52.27
2018-07-28T10:20:44.322Z,51.02
2018-07-28T10:23:13.154Z,52.00
2018-07-28T10:25:41.966Z,52.51
2018-07-28T10:28:10.702Z,52.70
2018-07-28T10:30:39.436Z,51.45
2018-07-28T10:33:08.226Z,51.14
2018-07-28T10:35:37.098Z,51.94
2018-07-28T10:38:06.330Z,50.15
2018-07-28T10:40:35.103Z,50.18
2018-07-28T10:43:03.974Z,50.31
2018-07-28T10:45:32.762Z,51.27
2018-07-28T10:48:01.657Z,52.05
2018-07-28T10:50:30.406Z,51.16
2018-07-28T10:52:59.145Z,51.13
2018-07-28T10:55:28.202Z,51.70
2018-07-28T10:57:57.609Z,50.52
2018-07-28T11:00:26.494Z,49.67
2018-07-28T11:02:55.541Z,50.89
2018-07-28T11:05:24.266Z,49.65
2018-07-28T11:07:53.089Z,49.31
2018-07-28T11:10:21.878Z,48.33
2018-07-28T11:12:51.021Z,49.02
2018-07-28T11:15:19.812Z,49.84
2018-07-28T11:17:48.646Z,49.02
2018-07-28T11:20:17.565Z,48.93
2018-07-28T11:22:46.330Z,47.42
2018-07-28T11:25:15.185Z,48.32
2018-07-28T11:27:44.090Z,46.71
2018-07-28T11:30:12.940Z,46.59
2018-07-28T11:33:51.154Z,46.69
2018-07-28T11:36:31.644Z,48.38
2018-07-28T11:39:11.928Z,47.78
2018-07-28T11:41:51.864Z,47.94
2018-07-28T11:44:31.816Z,48.42
2018-07-28T11:47:00.585Z,48.49
2018-07-28T11:49:29.400Z,47.85
2018-07-28T11:51:58.157Z,47.74
2018-07-28T11:54:26.922Z,46.58
2018-07-28T11:56:55.672Z,46.58
2018-07-28T11:59:24.418Z,45.75
2018-07-28T12:01:53.466Z,45.89
2018-07-28T12:04:22.244Z,46.10
2018-07-28T12:06:50.958Z,46.73
2018-07-28T12:09:19.721Z,46.51
2018-07-28T12:11:48.508Z,45.89
2018-07-28T12:14:17.255Z,45.07
2018-07-28T12:16:47.005Z,45.65
2018-07-28T12:19:16.661Z,44.63
2018-07-28T12:21:45.396Z,43.56
2018-07-28T12:24:14.427Z,44.79
2018-07-28T12:26:43.577Z,44.09
2018-07-28T12:29:12.305Z,43.10
2018-07-28T12:31:41.097Z,43.33
2018-07-28T12:34:09.822Z,44.08
2018-07-28T12:36:38.601Z,43.68
2018-07-28T12:39:09.282Z,44.83
2018-07-28T12:41:38.000Z,44.58
2018-07-28T12:44:06.780Z,43.12
2018-07-28T12:46:35.516Z,42.80
2018-07-28T12:49:04.294Z,43.30
2018-07-28T12:51:33.454Z,41.39
2018-07-28T12:54:02.297Z,41.13
2018-07-28T12:56:31.138Z,40.86
2018-07-28T12:59:00.003Z,40.72
2018-07-28T13:01:28.800Z,39.98
2018-07-28T13:03:57.608Z,39.74
2018-07-28T13:06:26.883Z,40.25
2018-07-28T13:08:55.749Z,40.20
2018-07-28T13:11:24.561Z,39.87
2018-07-28T13:13:53.362Z,39.14
2018-07-28T13:16:22.229Z,39.85
2018-07-28T13:18:51.009Z,41.24
2018-07-28T13:21:19.797Z,41.79
2018-07-28T13:23:48.547Z,41.09
2018-07-28T13:26:17.473Z,41.65
2018-07-28T13:28:46.310Z,42.58
2018-07-28T13:31:15.079Z,42.99
2018-07-28T13:33:43.838Z,43.13
2018-07-28T13:36:12.669Z,43.51
2018-07-28T13:38:41.548Z,43.17
2018-07-28T13:41:10.293Z,43.59
2018-07-28T13:43:39.093Z,44.24
2018-07-28T13:46:07.933Z,43.89
2018-07-28T13:48:36.785Z,44.44
2018-07-28T13:51:05.561Z,45.58
2018-07-28T13:53:34.308Z,45.98
2018-07-28T13:56:03.174Z,47.38
2018-07-28T13:58:31.917Z,47.74
2018-07-28T14:01:01.228Z,47.04
2018-07-28T14:03:30.026Z,47.44
2018-07-28T14:05:58.839Z,48.63
2018-07-28T14:08:27.747Z,47.69
2018-07-28T14:10:56.556Z,48.30
2018-07-28T14:13:25.307Z,48.33
2018-07-28T14:15:54.122Z,49.38
2018-07-28T14:18:23.027Z,48.24
2018-07-28T14:20:51.870Z,48.56
2018-07-28T14:23:20.674Z,47.51
2018-07-28T14:25:49.921Z,48.30
2018-07-28T14:28:18.779Z,47.24
2018-07-28T14:30:47.593Z,46.79
2018-07-28T14:33:16.325Z,47.86
2018-07-28T14:35:45.470Z,47.25
2018-07-28T14:38:14.222Z,47.45
2018-07-28T14:40:43.056Z,47.13
2018-07-28T14:43:11.814Z,46.93
2018-07-28T14:45:41.391Z,47.09
2018-07-28T14:48:10.375Z,46.41
2018-07-28T14:50:39.139Z,46.45
2018-07-28T14:53:08.311Z,45.28
2018-07-28T14:55:37.178Z,46.17
2018-07-28T14:58:06.551Z,43.67
2018-07-28T15:00:36.683Z,42.30
2018-07-28T15:03:11.274Z,42.64
2018-07-28T15:05:40.206Z,42.78
2018-07-28T15:08:10.995Z,42.63
2018-07-28T15:10:39.844Z,44.10
2018-07-28T15:13:08.688Z,43.74
2018-07-28T15:15:37.527Z,41.69
2018-07-28T15:18:06.658Z,42.41
2018-07-28T15:20:35.490Z,43.18
2018-07-28T15:23:04.278Z,44.29
2018-07-28T15:25:33.053Z,44.79
2018-07-28T15:28:02.551Z,47.74
2018-07-28T15:30:31.345Z,48.89
2018-07-28T15:33:00.077Z,47.27
2018-07-28T15:35:28.870Z,48.48
2018-07-28T15:37:57.563Z,48.55
2018-07-28T15:40:26.354Z,48.85
2018-07-28T15:42:55.208Z,48.43
2018-07-28T15:45:23.948Z,46.67
2018-07-28T15:47:52.854Z,46.26
2018-07-28T15:50:21.740Z,44.99
2018-07-28T15:52:50.621Z,43.87
2018-07-28T15:55:20.946Z,43.61
2018-07-28T15:57:49.698Z,43.33
2018-07-28T16:00:19.529Z,41.70
2018-07-28T16:02:49.158Z,41.14
2018-07-28T16:05:18.200Z,41.88
2018-07-28T16:07:47.204Z,43.19
2018-07-28T16:10:16.433Z,44.37
2018-07-28T16:12:45.193Z,45.48
2018-07-28T16:15:13.969Z,46.38
2018-07-28T16:17:42.756Z,46.13
2018-07-28T16:20:11.641Z,45.84
2018-07-28T16:22:40.524Z,46.58
2018-07-28T16:25:09.710Z,46.59
2018-07-28T16:27:38.987Z,47.46
2018-07-28T16:30:09.137Z,48.24
2018-07-28T16:32:37.917Z,48.61
2018-07-28T16:35:07.945Z,49.61
2018-07-28T16:37:36.888Z,50.46
2018-07-28T16:40:05.828Z,50.62
2018-07-28T16:42:34.873Z,50.22
2018-07-28T16:45:03.734Z,50.61
2018-07-28T16:47:32.481Z,51.87
2018-07-28T16:50:01.298Z,51.52
2018-07-28T16:52:30.086Z,52.51
2018-07-28T16:54:59.944Z,51.90
2018-07-28T16:57:28.724Z,51.89
2018-07-28T16:59:57.465Z,51.45
2018-07-28T17:02:26.234Z,52.88
2018-07-28T17:04:55.021Z,53.14
2018-07-28T17:07:23.834Z,53.14
2018-07-28T17:09:52.585Z,52.53
2018-07-28T17:12:21.346Z,53.08
2018-07-28T17:14:50.084Z,54.44
2018-07-28T17:17:18.847Z,54.40
2018-07-28T17:19:47.729Z,54.10
2018-07-28T17:22:16.573Z,54.71
2018-07-28T17:24:45.508Z,56.43
2018-07-28T17:27:14.242Z,55.95
2018-07-28T17:29:43.058Z,57.08
2018-07-28T17:32:12.345Z,56.52
2018-07-28T17:34:41.756Z,56.79
2018-07-28T17:37:10.526Z,57.79
2018-07-28T17:39:39.285Z,58.02
2018-07-28T17:42:08.073Z,58.45
2018-07-28T17:44:36.897Z,58.75
2018-07-28T17:47:05.685Z,58.16
2018-07-28T17:49:34.468Z,57.82
2018-07-28T17:52:03.274Z,57.61
2018-07-28T17:54:32.043Z,58.22
2018-07-28T17:57:00.886Z,58.13
2018-07-28T17:59:29.727Z,59.32
2018-07-28T18:01:58.585Z,60.01
2018-07-28T18:04:27.473Z,61.38
2018-07-28T18:06:56.300Z,64.02
2018-07-28T18:09:25.003Z,65.64
2018-07-28T18:11:53.827Z,65.38
2018-07-28T18:14:22.614Z,69.64
2018-07-28T18:16:51.379Z,66.67
2018-07-28T18:19:20.268Z,69.61
2018-07-28T18:21:49.029Z,70.61
2018-07-28T18:24:17.800Z,71.46
2018-07-28T18:26:46.670Z,73.02
2018-07-28T18:29:15.647Z,69.45
2018-07-28T18:31:44.812Z,70.16
2018-07-28T18:34:13.645Z,70.26
2018-07-28T18:36:42.548Z,69.44
2018-07-28T18:39:12.346Z,71.64
2018-07-28T18:41:41.540Z,71.45
2018-07-28T18:44:10.629Z,70.51
2018-07-28T18:46:40.285Z,71.18
2018-07-28T18:49:09.017Z,71.41
2018-07-28T18:51:37.796Z,72.48
2018-07-28T18:54:07.032Z,73.16
2018-07-28T18:56:35.848Z,73.03
2018-07-28T18:59:04.885Z,73.01
2018-07-28T19:01:33.739Z,73.14
2018-07-28T19:04:02.548Z,72.37
2018-07-28T19:06:31.354Z,73.21
2018-07-28T19:09:05.258Z,73.06
2018-07-28T19:11:34.056Z,74.68
2018-07-28T19:14:08.022Z,75.28
2018-07-28T19:16:36.753Z,75.22
2018-07-28T19:19:10.728Z,75.37
2018-07-28T19:21:39.509Z,74.03
2018-07-28T19:24:08.269Z,74.94
2018-07-28T19:26:37.036Z,74.52
2018-07-28T19:29:10.977Z,74.46
2018-07-28T19:31:40.152Z,75.57
2018-07-28T19:34:08.941Z,73.25
2018-07-28T19:36:43.274Z,72.98
2018-07-28T19:39:21.693Z,72.38
2018-07-28T19:41:55.879Z,72.96
2018-07-28T19:44:24.683Z,73.46
2018-07-28T19:46:53.636Z,74.63
2018-07-28T19:49:22.409Z,74.50
2018-07-28T19:51:51.185Z,74.18
2018-07-28T19:54:20.673Z,75.42
2018-07-28T19:56:49.462Z,75.83
2018-07-28T19:59:18.225Z,76.60
2018-07-28T20:01:47.044Z,76.03
2018-07-28T20:04:15.789Z,76.84
2018-07-28T20:06:44.583Z,76.50
2018-07-28T20:09:13.557Z,77.37
2018-07-28T20:11:42.329Z,77.55
2018-07-28T20:14:11.998Z,77.51
2018-07-28T20:16:40.766Z,76.71
2018-07-28T20:19:09.609Z,77.28
2018-07-28T20:21:38.391Z,77.77
2018-07-28T20:24:07.213Z,77.38
2018-07-28T20:26:36.058Z,76.86
2018-07-28T20:29:04.996Z,77.22
2018-07-28T20:31:33.733Z,77.84
2018-07-28T20:34:02.518Z,77.74
2018-07-28T20:36:32.010Z,77.98
2018-07-28T20:39:00.765Z,77.54
2018-07-28T20:41:29.545Z,78.09
2018-07-28T20:43:59.023Z,78.33
2018-07-28T20:46:29.291Z,78.50
2018-07-28T20:48:58.157Z,78.25
2018-07-28T20:51:27.771Z,79.48
2018-07-28T20:53:56.549Z,79.44
2018-07-28T20:56:25.310Z,79.09
2018-07-28T20:58:54.078Z,79.05
2018-07-28T21:01:23.071Z,77.76
2018-07-28T21:03:51.858Z,78.49
2018-07-28T21:06:20.629Z,78.50
2018-07-28T21:08:49.408Z,78.56
2018-07-28T21:11:18.164Z,79.25
2018-07-28T21:13:47.009Z,79.14
2018-07-28T21:16:15.766Z,78.48
2018-07-28T21:18:44.526Z,77.99
2018-07-28T21:21:13.244Z,79.25
2018-07-28T21:23:42.006Z,78.92
2018-07-28T21:26:10.783Z,78.04
2018-07-28T21:28:39.578Z,78.94
2018-07-28T21:31:08.412Z,79.16
2018-07-28T21:33:37.217Z,79.63
2018-07-28T21:38:33.902Z,79.56
2018-07-28T21:41:02.873Z,79.97
2018-07-28T21:43:31.643Z,78.82
2018-07-28T21:46:00.426Z,79.19
2018-07-28T21:48:29.748Z,78.42
2018-07-28T21:50:58.494Z,77.53
2018-07-28T21:53:27.219Z,77.66
2018-07-28T21:55:55.978Z,76.12
2018-07-28T21:58:24.730Z,76.65
2018-07-28T22:01:04.958Z,76.27
2018-07-28T22:03:34.134Z,76.46
2018-07-28T22:06:02.963Z,76.67
2018-07-28T22:08:31.770Z,75.43
2018-07-28T22:11:00.554Z,75.14
2018-07-28T22:13:29.750Z,75.76
2018-07-28T22:15:58.629Z,75.32
2018-07-28T22:18:27.438Z,75.23
2018-07-28T22:20:56.353Z,75.15
2018-07-28T22:23:25.249Z,75.87
2018-07-28T22:25:54.021Z,76.74
2018-07-28T22:28:22.835Z,76.92
2018-07-28T22:30:51.649Z,75.85
2018-07-28T22:33:20.468Z,77.16
2018-07-28T22:35:49.274Z,75.63
2018-07-28T22:38:18.041Z,77.33
2018-07-28T22:40:46.840Z,77.11
2018-07-28T22:43:15.634Z,76.81
2018-07-28T22:45:44.449Z,75.76
2018-07-28T22:48:13.246Z,76.69
2018-07-28T22:50:42.053Z,76.15
2018-07-28T22:53:10.875Z,75.96
2018-07-28T22:55:39.689Z,76.04
2018-07-28T22:58:08.488Z,77.19
2018-07-28T23:00:37.308Z,77.79
2018-07-28T23:03:06.170Z,77.59
2018-07-28T23:05:34.958Z,76.60
2018-07-28T23:08:03.920Z,77.03
2018-07-28T23:10:33.132Z,76.74
2018-07-28T23:13:01.974Z,75.66
2018-07-28T23:15:30.757Z,75.33
2018-07-28T23:17:59.573Z,74.76
2018-07-28T23:20:28.371Z,74.96
2018-07-28T23:22:57.194Z,74.09
2018-07-28T23:25:25.957Z,74.17
2018-07-28T23:27:54.852Z,74.21
2018-07-28T23:30:23.846Z,73.72
2018-07-28T23:32:52.630Z,73.54
2018-07-28T23:35:21.795Z,73.98
2018-07-28T23:37:50.710Z,73.59
2018-07-28T23:40:19.894Z,74.33
2018-07-28T23:42:49.077Z,74.16
2018-07-28T23:45:17.936Z,74.55
2018-07-28T23:47:46.694Z,74.46
2018-07-28T23:50:15.892Z,74.11
2018-07-28T23:52:44.639Z,73.91
2018-07-28T23:55:13.418Z,75.03
2018-07-28T23:57:42.577Z,75.05
